Main page
Satellite images 10-day forecastsClimateMarine weather Cyclones Lightning AirportsFAQ Newsletter About
Weather : Europe Africa North America South America Asia Australia-Oceania Others
Languages Contact

Bucharest, Romania

Henri Coandă International Airport

latitude: 44-33N, longitude: 026-06E, elevation: 95 m


METAR: LROP 280930Z VRB03KT 9999 SCT023 17/09 Q1011 NOSIG
TAF: LROP 280501Z 2806/2906 12010KT 9999 OVC040 BECMG 2809/2811 VRB04KT TEMPO 2814/2818 SCT035CB

Time: 12:46 (09:46 UTC)

Current weather observation

The report was made 16 minutes ago, at 09:30 UTC
Wind 3 kt from variable directions
Temperature 17°C
Humidity 59%
Pressure 1011 hPa
Visibility 10 km or more
Scattered clouds at a height of 2300 ft

Change units

Forecast

The report was made 4 hours and 45 minutes ago, at 05:01 UTC
Forecast valid from 28 at 06 UTC to 29 at 06 UTC
Wind 10 kt from the East/Southeast
Visibility 10 km or more
Overcast at a height of 4000 ft
Becoming
from 28 at 09 UTC to 28 at 11 UTC
Wind 4 kt from variable directions
Temporary
from 28 at 14 UTC to 28 at 18 UTC
Scattered clouds at a height of 3500 ft, Cumulonimbus.
The information on this site is subject to a disclaimer
Weather : Europe Africa North America South America Asia Australia-Oceania Others
Satellite images 10-day forecastsClimateMarine weather Cyclones Lightning AirportsFAQ Languages Contact Newsletter About